createdAt,value
2022-12-18T00:00:08.266Z,36.60
2022-12-18T00:02:58.216Z,35.67
2022-12-18T00:05:58.947Z,34.57
2022-12-18T00:08:35.738Z,36.40
2022-12-18T00:11:15.168Z,34.80
2022-12-18T00:13:58.598Z,34.57
2022-12-18T00:16:37.941Z,34.17
2022-12-18T00:19:17.447Z,35.03
2022-12-18T00:21:54.028Z,34.13
2022-12-18T00:24:30.438Z,35.13
2022-12-18T00:27:11.242Z,33.93
2022-12-18T00:29:47.570Z,32.23
2022-12-18T00:32:29.482Z,33.10
2022-12-18T00:35:04.760Z,31.53
2022-12-18T00:37:38.552Z,34.43
2022-12-18T00:40:13.275Z,34.30
2022-12-18T00:42:58.665Z,32.83
2022-12-18T00:45:34.280Z,35.93
2022-12-18T00:48:07.676Z,31.70
2022-12-18T00:50:42.202Z,32.57
2022-12-18T00:53:17.567Z,31.27
2022-12-18T00:55:50.733Z,32.50
2022-12-18T00:58:25.580Z,34.33
2022-12-18T01:00:58.999Z,33.67
2022-12-18T01:03:32.264Z,31.13
2022-12-18T01:06:08.203Z,33.13
2022-12-18T01:08:41.305Z,37.30
2022-12-18T01:11:15.941Z,32.57
2022-12-18T01:13:50.189Z,31.80
2022-12-18T01:16:24.042Z,33.97
2022-12-18T01:18:57.214Z,31.50
2022-12-18T01:21:30.155Z,31.03
2022-12-18T01:24:05.230Z,32.03
2022-12-18T01:26:38.667Z,31.67
2022-12-18T01:29:12.867Z,30.43
2022-12-18T01:31:45.669Z,30.83
2022-12-18T01:36:53.134Z,20.88
2022-12-18T01:39:26.188Z,30.17
2022-12-18T01:42:05.128Z,32.13
2022-12-18T01:45:03.158Z,30.83
2022-12-18T01:47:40.103Z,30.03
2022-12-18T01:50:16.907Z,30.13
2022-12-18T01:52:52.697Z,32.17
2022-12-18T01:55:27.418Z,30.57
2022-12-18T01:58:02.504Z,31.20
2022-12-18T02:00:37.002Z,28.17
2022-12-18T02:03:10.021Z,28.47
2022-12-18T02:05:51.441Z,29.50
2022-12-18T02:08:34.990Z,29.40
2022-12-18T02:11:14.896Z,32.30
2022-12-18T02:13:55.137Z,30.77
2022-12-18T02:16:36.843Z,31.00
2022-12-18T02:19:38.818Z,32.67
2022-12-18T02:22:26.879Z,31.70
2022-12-18T02:25:13.900Z,33.30
2022-12-18T02:27:52.318Z,29.13
2022-12-18T02:30:28.911Z,31.33
2022-12-18T02:33:05.965Z,29.70
2022-12-18T02:35:43.212Z,28.27
2022-12-18T02:38:18.198Z,33.10
2022-12-18T02:40:55.621Z,31.67
2022-12-18T02:43:31.908Z,29.63
2022-12-18T02:46:32.220Z,28.47
2022-12-18T02:49:19.865Z,28.13
2022-12-18T02:51:57.816Z,30.43
2022-12-18T02:54:51.486Z,30.63
2022-12-18T02:57:35.092Z,30.67
2022-12-18T03:00:14.654Z,33.37
2022-12-18T03:02:54.162Z,29.13
2022-12-18T03:05:33.278Z,31.00
2022-12-18T03:08:13.765Z,28.53
2022-12-18T03:10:53.475Z,30.00
2022-12-18T03:13:31.219Z,27.43
2022-12-18T03:16:09.142Z,26.70
2022-12-18T03:18:48.547Z,30.13
2022-12-18T03:21:28.654Z,29.20
2022-12-18T03:24:02.777Z,29.43
2022-12-18T03:26:38.787Z,30.10
2022-12-18T03:29:20.312Z,28.97
2022-12-18T03:32:01.831Z,29.50
2022-12-18T03:34:38.439Z,26.87
2022-12-18T03:37:14.080Z,27.73
2022-12-18T03:39:47.430Z,30.20
2022-12-18T03:42:29.009Z,28.83
2022-12-18T03:45:13.330Z,26.43
2022-12-18T03:48:00.051Z,26.83
2022-12-18T03:50:42.119Z,29.00
2022-12-18T03:53:26.067Z,25.73
2022-12-18T03:56:01.265Z,26.43
2022-12-18T03:58:40.906Z,26.03
2022-12-18T04:01:32.984Z,27.87
2022-12-18T04:04:09.437Z,27.23
2022-12-18T04:06:47.463Z,28.80
2022-12-18T04:09:21.730Z,29.43
2022-12-18T04:11:55.212Z,27.37
2022-12-18T04:14:28.262Z,26.83
2022-12-18T04:17:02.836Z,25.60
2022-12-18T04:19:39.855Z,28.07
2022-12-18T04:22:14.617Z,24.93
2022-12-18T04:24:51.901Z,25.23
2022-12-18T04:27:34.033Z,18.30
2022-12-18T04:32:40.433Z,24.40
2022-12-18T04:35:16.270Z,28.30
2022-12-18T04:37:50.429Z,22.53
2022-12-18T04:45:29.223Z,15.73
2022-12-18T04:50:36.494Z,22.75
2022-12-18T04:53:09.171Z,23.37
2022-12-18T04:55:42.845Z,25.87
2022-12-18T04:58:15.560Z,21.90
2022-12-18T05:03:20.903Z,22.15
2022-12-18T05:08:28.166Z,22.73
2022-12-18T05:11:02.159Z,21.70
2022-12-18T05:13:35.866Z,22.77
2022-12-18T05:16:09.675Z,22.03
2022-12-18T05:18:42.829Z,21.90
2022-12-18T05:21:17.229Z,23.13
2022-12-18T05:23:50.132Z,20.83
2022-12-18T05:28:55.606Z,22.98
2022-12-18T05:31:28.792Z,21.00
2022-12-18T05:34:01.718Z,20.60
2022-12-18T05:36:36.401Z,22.67
2022-12-18T05:39:09.788Z,22.50
2022-12-18T05:41:42.890Z,21.53
2022-12-18T05:44:16.207Z,20.50
2022-12-18T05:46:49.150Z,22.35
2022-12-18T05:49:21.991Z,22.03
2022-12-18T05:54:29.413Z,20.90
2022-12-18T05:57:02.386Z,21.43
2022-12-18T06:02:08.086Z,21.75
2022-12-18T06:04:41.003Z,21.00
2022-12-18T06:07:15.211Z,21.50
2022-12-18T06:09:47.980Z,19.90
2022-12-18T06:14:53.412Z,19.48
2022-12-18T06:20:03.221Z,19.43
2022-12-18T06:22:37.532Z,20.20
2022-12-18T06:25:10.756Z,20.73
2022-12-18T06:27:43.702Z,21.10
2022-12-18T06:30:17.621Z,18.50
2022-12-18T06:32:56.401Z,20.87
2022-12-18T06:35:29.637Z,21.10
2022-12-18T06:40:39.138Z,20.33
2022-12-18T06:43:11.962Z,18.73
2022-12-18T06:48:17.402Z,20.50
2022-12-18T06:50:50.213Z,20.33
2022-12-18T06:53:24.998Z,19.80
2022-12-18T06:56:07.879Z,20.47
2022-12-18T06:58:43.353Z,21.07
2022-12-18T07:01:16.356Z,20.90
2022-12-18T07:03:54.007Z,19.83
2022-12-18T07:06:28.157Z,19.73
2022-12-18T07:09:02.703Z,20.90
2022-12-18T07:11:35.979Z,18.20
2022-12-18T07:14:08.851Z,16.97
2022-12-18T07:19:15.465Z,19.30
2022-12-18T07:21:48.416Z,18.83
2022-12-18T07:26:55.534Z,19.07
2022-12-18T07:32:01.123Z,14.07
2022-12-18T07:34:34.307Z,17.83
2022-12-18T07:37:08.224Z,18.03
2022-12-18T07:39:42.646Z,21.20
2022-12-18T07:42:34.245Z,16.87
2022-12-18T07:45:08.340Z,17.93
2022-12-18T07:47:42.235Z,18.97
2022-12-18T07:50:15.160Z,16.87
2022-12-18T07:52:49.359Z,17.47
2022-12-18T07:55:24.577Z,17.23
2022-12-18T07:58:01.025Z,18.37
2022-12-18T08:00:34.226Z,18.53
2022-12-18T08:03:07.076Z,16.33
2022-12-18T08:08:13.480Z,16.07
2022-12-18T08:10:48.286Z,17.87
2022-12-18T08:13:21.058Z,17.57
2022-12-18T08:18:34.524Z,16.33
2022-12-18T08:21:11.479Z,17.20
2022-12-18T08:23:45.489Z,18.17
2022-12-18T08:26:19.950Z,14.83
2022-12-18T08:28:55.883Z,16.37
2022-12-18T08:31:30.815Z,15.07
2022-12-18T08:34:04.011Z,15.87
2022-12-18T08:39:10.264Z,14.67
2022-12-18T08:42:09.904Z,15.68
2022-12-18T08:44:43.117Z,13.90
2022-12-18T08:49:48.654Z,14.70
2022-12-18T08:52:21.571Z,15.17
2022-12-18T08:54:54.324Z,15.00
2022-12-18T09:00:01.510Z,15.50
2022-12-18T09:05:07.884Z,14.55
2022-12-18T09:07:40.717Z,15.73
2022-12-18T09:12:48.016Z,14.70
2022-12-18T09:15:20.977Z,13.70
2022-12-18T09:17:55.204Z,14.90
2022-12-18T09:20:30.904Z,14.63
2022-12-18T09:23:03.788Z,15.83
2022-12-18T09:28:16.997Z,15.95
2022-12-18T09:30:51.459Z,14.13
2022-12-18T09:33:24.565Z,13.53
2022-12-18T09:35:57.390Z,15.07
2022-12-18T09:41:08.721Z,13.30
2022-12-18T09:43:48.271Z,13.87
2022-12-18T09:46:27.818Z,14.13
2022-12-18T09:49:05.076Z,14.80
2022-12-18T09:51:42.848Z,13.07
2022-12-18T09:54:22.832Z,14.23
2022-12-18T09:56:56.122Z,14.10
2022-12-18T09:59:36.355Z,15.80
2022-12-18T10:02:22.247Z,14.50
2022-12-18T10:05:09.125Z,14.43
2022-12-18T10:07:51.971Z,15.00
2022-12-18T10:10:43.993Z,13.52
2022-12-18T10:13:25.435Z,14.80
2022-12-18T10:16:13.230Z,13.43
2022-12-18T10:19:14.877Z,14.53
2022-12-18T10:21:55.182Z,14.20
2022-12-18T10:24:37.663Z,13.70
2022-12-18T10:27:16.589Z,15.35
2022-12-18T10:29:49.971Z,14.03
2022-12-18T10:32:26.899Z,15.73
2022-12-18T10:35:01.127Z,13.87
2022-12-18T10:37:34.617Z,12.97
2022-12-18T10:40:16.675Z,14.10
2022-12-18T10:43:07.273Z,14.33
2022-12-18T10:45:40.314Z,12.93
2022-12-18T10:48:24.619Z,13.83
2022-12-18T10:51:10.870Z,13.67
2022-12-18T10:53:55.041Z,12.23
2022-12-18T10:56:30.175Z,13.20
2022-12-18T10:59:05.866Z,13.10
2022-12-18T11:01:49.592Z,14.83
2022-12-18T11:04:25.602Z,12.43
2022-12-18T11:07:02.959Z,15.13
2022-12-18T11:09:40.009Z,12.30
2022-12-18T11:12:19.348Z,13.00
2022-12-18T11:14:54.494Z,12.70
2022-12-18T11:17:34.643Z,12.87
2022-12-18T11:20:23.922Z,12.07
2022-12-18T11:22:58.576Z,11.97
2022-12-18T11:25:34.719Z,12.90
2022-12-18T11:28:30.316Z,12.73
2022-12-18T11:31:21.425Z,12.97
2022-12-18T11:36:56.972Z,11.23
2022-12-18T11:39:40.203Z,11.37
2022-12-18T11:42:22.247Z,10.90
2022-12-18T11:45:00.112Z,10.73
2022-12-18T11:47:41.221Z,12.10
2022-12-18T11:50:18.630Z,11.83
2022-12-18T11:52:58.190Z,12.13
2022-12-18T11:55:49.193Z,12.40
2022-12-18T11:58:35.183Z,11.07
2022-12-18T12:01:19.722Z,11.33
2022-12-18T12:04:11.187Z,11.13
2022-12-18T12:06:54.203Z,12.53
2022-12-18T12:09:39.967Z,11.70
2022-12-18T12:12:30.359Z,12.87
2022-12-18T12:15:15.075Z,13.03
2022-12-18T12:17:54.743Z,11.57
2022-12-18T12:20:40.036Z,12.60
2022-12-18T12:23:23.521Z,12.50
2022-12-18T12:26:06.440Z,11.63
2022-12-18T12:28:54.700Z,12.67
2022-12-18T12:31:38.256Z,12.27
2022-12-18T12:34:18.743Z,13.70
2022-12-18T12:37:05.229Z,12.43
2022-12-18T12:39:41.675Z,12.07
2022-12-18T12:42:43.462Z,13.27
2022-12-18T12:45:24.834Z,12.27
2022-12-18T12:47:59.899Z,11.87
2022-12-18T12:50:38.324Z,12.10
2022-12-18T12:53:23.406Z,11.93
2022-12-18T12:55:57.572Z,11.80
2022-12-18T12:58:39.086Z,12.67
2022-12-18T13:01:30.236Z,13.03
2022-12-18T13:04:16.782Z,13.23
2022-12-18T13:06:56.752Z,11.50
2022-12-18T13:09:34.991Z,12.57
2022-12-18T13:12:34.975Z,13.00
2022-12-18T13:15:24.664Z,13.03
2022-12-18T13:18:09.855Z,13.20
2022-12-18T13:20:50.706Z,14.23
2022-12-18T13:23:30.896Z,13.00
2022-12-18T13:26:39.759Z,12.90
2022-12-18T13:29:12.783Z,14.17
2022-12-18T13:32:23.451Z,13.67
2022-12-18T13:35:33.758Z,14.40
2022-12-18T13:38:23.319Z,12.83
2022-12-18T13:41:01.081Z,14.80
2022-12-18T13:43:42.311Z,11.67
2022-12-18T13:46:25.602Z,13.37
2022-12-18T13:49:04.426Z,12.57
2022-12-18T13:51:37.813Z,14.73
2022-12-18T13:54:21.852Z,13.77
2022-12-18T13:56:55.781Z,13.40
2022-12-18T13:59:39.428Z,14.17
2022-12-18T14:02:18.151Z,14.30
2022-12-18T14:04:54.263Z,14.40
2022-12-18T14:07:33.093Z,14.53
2022-12-18T14:10:44.291Z,13.90
2022-12-18T14:13:16.223Z,15.97
2022-12-18T14:15:52.416Z,15.83
2022-12-18T14:18:27.842Z,14.57
2022-12-18T14:21:08.625Z,16.03
2022-12-18T14:23:44.568Z,16.50
2022-12-18T14:26:25.408Z,14.90
2022-12-18T14:28:59.763Z,15.30
2022-12-18T14:31:34.191Z,16.40
2022-12-18T14:34:10.797Z,18.03
2022-12-18T14:36:55.110Z,15.13
2022-12-18T14:39:30.963Z,14.07
2022-12-18T14:42:06.494Z,16.47
2022-12-18T14:45:05.241Z,15.97
2022-12-18T14:47:35.475Z,16.20
2022-12-18T14:50:18.099Z,15.97
2022-12-18T14:52:53.213Z,15.63
2022-12-18T14:55:28.347Z,15.67
2022-12-18T14:58:04.517Z,16.53
2022-12-18T15:00:44.150Z,16.43
2022-12-18T15:03:21.339Z,16.73
2022-12-18T15:05:57.063Z,18.30
2022-12-18T15:08:37.874Z,16.67
2022-12-18T15:11:28.094Z,16.07
2022-12-18T15:14:04.871Z,15.57
2022-12-18T15:16:46.248Z,15.97
2022-12-18T15:19:22.728Z,16.53
2022-12-18T15:22:06.339Z,17.60
2022-12-18T15:24:41.465Z,18.50
2022-12-18T15:27:26.495Z,17.93
2022-12-18T15:30:20.223Z,18.03
2022-12-18T15:37:23.831Z,17.20
2022-12-18T15:40:21.421Z,19.13
2022-12-18T15:43:14.991Z,19.07
2022-12-18T15:45:50.352Z,17.47
2022-12-18T15:48:46.978Z,17.73
2022-12-18T15:51:25.549Z,18.47
2022-12-18T15:54:04.754Z,17.33
2022-12-18T15:57:01.425Z,17.97
2022-12-18T15:59:35.461Z,19.63
2022-12-18T16:02:17.901Z,19.70
2022-12-18T16:04:52.257Z,19.85
2022-12-18T16:07:28.087Z,19.23
2022-12-18T16:10:05.253Z,18.67
2022-12-18T16:12:40.236Z,20.10
2022-12-18T16:15:22.495Z,19.67
2022-12-18T16:17:59.386Z,20.00
2022-12-18T16:20:32.316Z,21.67
2022-12-18T16:23:05.277Z,19.83
2022-12-18T16:25:38.421Z,19.67
2022-12-18T16:28:13.570Z,19.53
2022-12-18T16:30:49.714Z,20.67
2022-12-18T16:33:25.036Z,21.27
2022-12-18T16:35:58.469Z,19.47
2022-12-18T16:38:39.957Z,19.00
2022-12-18T16:41:38.642Z,20.63
2022-12-18T16:44:13.361Z,19.83
2022-12-18T16:46:47.435Z,19.37
2022-12-18T16:49:22.640Z,21.60
2022-12-18T16:51:56.033Z,21.57
2022-12-18T16:54:30.418Z,21.07
2022-12-18T16:57:24.017Z,21.33
2022-12-18T17:00:04.757Z,21.07
2022-12-18T17:02:39.485Z,20.80
2022-12-18T17:05:13.739Z,21.93
2022-12-18T17:07:46.994Z,21.97
2022-12-18T17:10:20.035Z,22.83
2022-12-18T17:12:52.933Z,22.83
2022-12-18T17:17:59.926Z,20.90
2022-12-18T17:20:33.258Z,21.87
2022-12-18T17:23:06.294Z,22.27
2022-12-18T17:25:41.115Z,19.90
2022-12-18T17:28:13.959Z,22.27
2022-12-18T17:33:21.475Z,21.10
2022-12-18T17:35:55.110Z,21.20
2022-12-18T17:38:27.909Z,21.73
2022-12-18T17:43:36.449Z,22.13
2022-12-18T17:46:15.286Z,22.53
2022-12-18T17:48:50.075Z,21.77
2022-12-18T17:51:23.188Z,22.77
2022-12-18T17:53:56.100Z,22.30
2022-12-18T17:59:02.084Z,21.90
2022-12-18T18:01:43.764Z,22.43
2022-12-18T18:04:20.012Z,22.87
2022-12-18T18:06:52.956Z,22.63
2022-12-18T18:12:16.091Z,22.25
2022-12-18T18:14:49.239Z,22.67
2022-12-18T18:17:23.814Z,24.80
2022-12-18T18:19:57.065Z,20.80
2022-12-18T18:22:30.273Z,22.87
2022-12-18T18:25:04.166Z,22.90
2022-12-18T18:27:40.641Z,24.73
2022-12-18T18:30:14.670Z,23.77
2022-12-18T18:32:48.824Z,23.10
2022-12-18T18:35:52.233Z,22.53
2022-12-18T18:38:15.698Z,21.50
2022-12-18T18:40:48.793Z,23.43
2022-12-18T18:43:24.412Z,23.87
2022-12-18T18:45:58.440Z,22.27
2022-12-18T18:48:35.743Z,24.20
2022-12-18T18:51:12.625Z,24.42
2022-12-18T18:53:51.061Z,22.43
2022-12-18T18:59:22.419Z,23.70
2022-12-18T19:02:04.301Z,24.35
2022-12-18T19:04:45.785Z,23.85
2022-12-18T19:07:29.493Z,24.33
2022-12-18T19:10:05.401Z,24.50
2022-12-18T19:12:56.123Z,24.27
2022-12-18T19:15:29.055Z,26.77
2022-12-18T19:18:02.219Z,24.10
2022-12-18T19:20:36.925Z,24.73
2022-12-18T19:23:10.035Z,26.83
2022-12-18T19:25:44.059Z,24.63
2022-12-18T19:28:21.166Z,24.53
2022-12-18T19:30:59.340Z,23.50
2022-12-18T19:33:43.037Z,26.40
2022-12-18T19:36:20.814Z,24.27
2022-12-18T19:38:56.403Z,25.13
2022-12-18T19:41:31.399Z,25.30
2022-12-18T19:44:07.714Z,23.65
2022-12-18T19:46:42.324Z,25.20
2022-12-18T19:49:18.398Z,24.88
2022-12-18T19:51:55.335Z,25.20
2022-12-18T19:54:28.190Z,24.90
2022-12-18T19:59:33.755Z,24.08
2022-12-18T20:04:40.311Z,25.65
2022-12-18T20:07:14.732Z,27.23
2022-12-18T20:09:48.060Z,27.20
2022-12-18T20:12:21.082Z,23.60
2022-12-18T20:17:30.130Z,24.33
2022-12-18T20:20:04.549Z,25.58
2022-12-18T20:22:39.149Z,25.53
2022-12-18T20:25:11.991Z,25.60
2022-12-18T20:27:44.999Z,26.33
2022-12-18T20:30:17.834Z,25.80
2022-12-18T20:35:23.241Z,25.03
2022-12-18T20:37:57.858Z,25.25
2022-12-18T20:40:31.623Z,26.45
2022-12-18T20:43:04.714Z,27.42
2022-12-18T20:45:38.826Z,23.73
2022-12-18T20:48:19.241Z,24.25
2022-12-18T20:51:00.050Z,24.80
2022-12-18T20:53:37.834Z,25.00
2022-12-18T20:56:21.154Z,24.90
2022-12-18T20:59:03.346Z,28.65
2022-12-18T21:01:36.517Z,25.55
2022-12-18T21:04:11.564Z,24.70
2022-12-18T21:06:49.447Z,24.10
2022-12-18T21:09:27.881Z,24.53
2022-12-18T21:12:25.347Z,25.80
2022-12-18T21:14:59.507Z,24.33
2022-12-18T21:17:33.097Z,26.33
2022-12-18T21:20:17.282Z,24.17
2022-12-18T21:22:50.684Z,25.30
2022-12-18T21:25:27.423Z,24.60
2022-12-18T21:28:00.266Z,25.77
2022-12-18T21:33:06.298Z,24.77
2022-12-18T21:35:39.205Z,24.00
2022-12-18T21:40:46.071Z,25.05
2022-12-18T21:43:36.460Z,24.77
2022-12-18T21:46:09.977Z,26.45
2022-12-18T21:48:43.457Z,24.42
2022-12-18T21:51:16.258Z,24.15
2022-12-18T21:53:49.392Z,23.75
2022-12-18T21:56:24.310Z,26.10
2022-12-18T21:58:57.504Z,24.15
2022-12-18T22:01:37.366Z,24.87
2022-12-18T22:04:11.319Z,25.15
2022-12-18T22:06:44.750Z,24.80
2022-12-18T22:09:19.573Z,25.40
2022-12-18T22:11:54.212Z,24.15
2022-12-18T22:14:27.187Z,23.67
2022-12-18T22:19:34.723Z,19.00
2022-12-18T22:22:11.071Z,24.63
2022-12-18T22:27:17.951Z,23.40
2022-12-18T22:30:05.061Z,23.58
2022-12-18T22:32:37.996Z,23.13
2022-12-18T22:37:48.942Z,23.48
2022-12-18T22:40:27.779Z,24.27
2022-12-18T22:43:02.452Z,23.70
2022-12-18T22:45:36.298Z,23.80
2022-12-18T22:48:11.308Z,22.25
2022-12-18T22:50:45.911Z,21.95
2022-12-18T22:53:18.814Z,22.38
2022-12-18T22:55:51.609Z,21.85
2022-12-18T22:58:25.919Z,21.85
2022-12-18T23:00:58.742Z,24.40
2022-12-18T23:06:06.958Z,21.97
2022-12-18T23:08:39.890Z,21.38
2022-12-18T23:13:48.295Z,21.35
2022-12-18T23:16:22.730Z,21.77
2022-12-18T23:18:56.642Z,22.42
2022-12-18T23:21:29.517Z,22.83
2022-12-18T23:24:03.830Z,22.85
2022-12-18T23:26:36.830Z,21.05
2022-12-18T23:31:43.906Z,20.38
2022-12-18T23:34:17.879Z,21.65
2022-12-18T23:36:54.577Z,24.08
2022-12-18T23:39:30.385Z,21.50
2022-12-18T23:42:03.426Z,22.88
2022-12-18T23:44:38.326Z,22.48
2022-12-18T23:47:11.114Z,21.83
2022-12-18T23:49:43.962Z,21.52
2022-12-18T23:54:49.366Z,23.30
2022-12-18T23:57:22.163Z,21.35
2022-12-18T23:59:59.205Z,20.95
